createdAt,value
2022-12-31T00:03:45.033Z,76.15
2022-12-31T00:07:46.516Z,75.64
2022-12-31T00:11:47.920Z,76.17
2022-12-31T00:15:49.348Z,75.99
2022-12-31T00:19:52.130Z,76.42
2022-12-31T00:23:53.570Z,76.02
2022-12-31T00:27:54.984Z,75.42
2022-12-31T00:31:56.425Z,75.29
2022-12-31T00:36:06.023Z,74.70
2022-12-31T00:40:09.301Z,75.85
2022-12-31T00:44:11.795Z,74.97
2022-12-31T00:48:13.229Z,75.40
2022-12-31T00:52:16.004Z,74.62
2022-12-31T00:56:19.776Z,74.18
2022-12-31T01:00:21.224Z,74.73
2022-12-31T01:04:22.662Z,75.04
2022-12-31T01:08:25.439Z,74.46
2022-12-31T01:12:26.834Z,75.15
2022-12-31T01:16:31.605Z,75.76
2022-12-31T01:20:36.173Z,75.21
2022-12-31T01:24:39.058Z,75.56
2022-12-31T01:28:40.743Z,75.76
2022-12-31T01:32:42.175Z,75.49
2022-12-31T01:36:43.672Z,75.15
2022-12-31T01:40:46.439Z,75.16
2022-12-31T01:44:51.914Z,75.24
2022-12-31T01:48:56.420Z,75.76
2022-12-31T01:53:00.725Z,75.07
2022-12-31T01:57:04.016Z,75.61
2022-12-31T02:01:08.119Z,76.64
2022-12-31T02:05:17.014Z,76.38
2022-12-31T02:09:18.505Z,75.98
2022-12-31T02:13:21.346Z,76.21
2022-12-31T02:17:32.414Z,76.60
2022-12-31T02:21:50.680Z,76.65
2022-12-31T02:26:08.625Z,76.68
2022-12-31T02:30:15.229Z,76.30
2022-12-31T02:34:21.023Z,76.17
2022-12-31T02:38:24.463Z,75.60
2022-12-31T02:42:25.922Z,75.87
2022-12-31T02:46:37.368Z,75.78
2022-12-31T02:50:44.841Z,75.63
2022-12-31T02:54:55.504Z,75.96
2022-12-31T02:59:03.300Z,75.95
2022-12-31T03:03:07.862Z,76.69
2022-12-31T03:07:13.092Z,75.92
2022-12-31T03:11:14.489Z,75.61
2022-12-31T03:15:18.831Z,74.66
2022-12-31T03:19:21.575Z,74.89
2022-12-31T03:23:26.137Z,75.78
2022-12-31T03:27:27.550Z,76.12
2022-12-31T03:31:28.970Z,76.06
2022-12-31T03:35:34.413Z,76.91
2022-12-31T03:39:35.817Z,76.78
2022-12-31T03:43:37.248Z,76.87
2022-12-31T03:47:38.983Z,76.54
2022-12-31T03:51:41.729Z,77.11
2022-12-31T03:55:43.272Z,76.57
2022-12-31T03:59:44.718Z,77.03
2022-12-31T04:03:46.149Z,76.69
2022-12-31T04:07:48.934Z,76.70
2022-12-31T04:11:50.369Z,77.11
2022-12-31T04:15:51.880Z,76.88
2022-12-31T04:19:53.304Z,77.21
2022-12-31T04:23:56.143Z,77.42
2022-12-31T04:27:57.600Z,77.75
2022-12-31T04:31:59.031Z,77.83
2022-12-31T04:36:00.796Z,77.48
2022-12-31T04:40:06.617Z,77.31
2022-12-31T04:44:08.379Z,77.29
2022-12-31T04:48:09.788Z,77.19
2022-12-31T04:52:11.179Z,76.57
2022-12-31T04:56:14.517Z,76.94
2022-12-31T05:00:16.257Z,76.56
2022-12-31T05:04:17.697Z,76.00
2022-12-31T05:08:19.603Z,75.53
2022-12-31T05:12:22.356Z,75.52
2022-12-31T05:16:23.866Z,75.98
2022-12-31T05:20:25.325Z,75.69
2022-12-31T05:24:26.729Z,75.53
2022-12-31T05:28:29.461Z,75.95
2022-12-31T05:32:30.949Z,75.36
2022-12-31T05:36:32.360Z,76.23
2022-12-31T05:40:33.797Z,76.50
2022-12-31T05:44:36.533Z,77.28
2022-12-31T05:48:37.930Z,77.26
2022-12-31T05:52:39.344Z,77.88
2022-12-31T05:56:40.807Z,77.01
2022-12-31T06:00:43.543Z,76.69
2022-12-31T06:04:44.976Z,76.91
2022-12-31T06:08:49.207Z,76.10
2022-12-31T06:12:50.643Z,75.82
2022-12-31T06:16:53.411Z,75.34
2022-12-31T06:20:57.612Z,75.43
2022-12-31T06:24:59.025Z,75.14
2022-12-31T06:29:00.434Z,75.57
2022-12-31T06:33:03.221Z,74.68
2022-12-31T06:37:04.659Z,74.23
2022-12-31T06:41:09.531Z,73.91
2022-12-31T06:45:11.313Z,74.00
2022-12-31T06:49:14.671Z,73.13
2022-12-31T06:53:16.099Z,73.42
2022-12-31T06:57:18.065Z,72.72
2022-12-31T07:01:35.244Z,73.22
2022-12-31T07:05:45.371Z,72.19
2022-12-31T07:09:55.610Z,71.92
2022-12-31T07:14:07.447Z,71.50
2022-12-31T07:18:20.856Z,70.90
2022-12-31T07:22:24.226Z,70.67
2022-12-31T07:26:43.561Z,70.94
2022-12-31T07:30:52.590Z,70.70
2022-12-31T07:35:03.421Z,70.66
2022-12-31T07:39:10.841Z,70.28
2022-12-31T07:43:18.046Z,69.74
2022-12-31T07:47:21.867Z,69.21
2022-12-31T07:51:23.776Z,69.28
2022-12-31T07:55:26.552Z,68.27
2022-12-31T07:59:41.181Z,68.58
2022-12-31T08:03:52.679Z,68.42
2022-12-31T08:07:58.191Z,68.49
2022-12-31T08:12:02.396Z,67.10
2022-12-31T08:16:04.515Z,67.28
2022-12-31T08:20:07.189Z,66.99
2022-12-31T08:24:20.302Z,67.51
2022-12-31T08:28:45.175Z,66.98
2022-12-31T08:32:51.659Z,66.38
2022-12-31T08:36:59.843Z,66.87
2022-12-31T08:41:12.292Z,66.44
2022-12-31T08:45:24.856Z,66.42
2022-12-31T08:49:28.344Z,66.67
2022-12-31T08:53:30.677Z,66.23
2022-12-31T08:57:38.029Z,66.73
2022-12-31T09:01:56.956Z,65.87
2022-12-31T09:06:06.209Z,65.57
2022-12-31T09:10:17.856Z,65.99
2022-12-31T09:14:33.489Z,65.84
2022-12-31T09:18:41.064Z,65.11
2022-12-31T09:22:42.844Z,65.02
2022-12-31T09:26:52.486Z,64.14
2022-12-31T09:31:01.097Z,64.38
2022-12-31T09:35:12.519Z,64.40
2022-12-31T09:39:22.476Z,64.20
2022-12-31T09:44:00.885Z,63.99
2022-12-31T09:48:42.134Z,64.47
2022-12-31T09:53:02.454Z,63.78
2022-12-31T09:57:19.403Z,64.47
2022-12-31T10:01:31.220Z,64.37
2022-12-31T10:05:48.789Z,63.39
2022-12-31T10:10:00.728Z,63.52
2022-12-31T10:14:28.327Z,63.44
2022-12-31T10:18:44.298Z,63.16
2022-12-31T10:23:20.657Z,62.83
2022-12-31T10:27:48.726Z,63.10
2022-12-31T10:32:07.410Z,62.73
2022-12-31T10:36:17.802Z,62.83
2022-12-31T10:40:28.907Z,62.54
2022-12-31T10:45:04.227Z,63.08
2022-12-31T10:49:30.159Z,63.22
2022-12-31T10:53:52.000Z,62.49
2022-12-31T10:58:28.926Z,63.38
2022-12-31T11:02:52.841Z,62.69
2022-12-31T11:07:22.595Z,63.20
2022-12-31T11:11:38.182Z,63.14
2022-12-31T11:16:09.762Z,63.43
2022-12-31T11:20:30.973Z,63.17
2022-12-31T11:24:44.263Z,62.85
2022-12-31T11:29:08.212Z,63.36
2022-12-31T11:33:24.347Z,62.80
2022-12-31T11:37:36.629Z,62.24
2022-12-31T11:41:46.223Z,62.34
2022-12-31T11:46:08.593Z,62.48
2022-12-31T11:50:28.712Z,62.10
2022-12-31T11:54:45.706Z,62.52
2022-12-31T11:58:49.377Z,62.51
2022-12-31T12:02:53.738Z,61.64
2022-12-31T12:06:55.661Z,62.20
2022-12-31T12:11:04.990Z,61.56
2022-12-31T12:15:10.146Z,61.09
2022-12-31T12:19:17.963Z,60.71
2022-12-31T12:23:24.500Z,60.23
2022-12-31T12:27:30.601Z,60.18
2022-12-31T12:31:32.127Z,60.09
2022-12-31T12:35:35.506Z,59.49
2022-12-31T12:39:37.201Z,59.58
2022-12-31T12:43:40.000Z,58.72
2022-12-31T12:47:42.953Z,58.84
2022-12-31T12:52:02.801Z,59.71
2022-12-31T12:56:12.880Z,59.61
2022-12-31T13:00:21.689Z,59.98
2022-12-31T13:04:47.491Z,59.51
2022-12-31T13:09:04.128Z,60.35
2022-12-31T13:13:24.900Z,60.14
2022-12-31T13:17:39.843Z,59.87
2022-12-31T13:21:48.865Z,60.94
2022-12-31T13:25:59.917Z,61.37
2022-12-31T13:30:04.105Z,61.10
2022-12-31T13:34:13.348Z,61.91
2022-12-31T13:38:18.899Z,62.10
2022-12-31T13:42:25.453Z,61.48
2022-12-31T13:46:40.668Z,61.88
2022-12-31T13:50:51.186Z,61.61
2022-12-31T13:54:56.582Z,62.21
2022-12-31T13:59:00.155Z,63.10
2022-12-31T14:03:11.364Z,62.74
2022-12-31T14:07:16.785Z,62.26
2022-12-31T14:11:27.002Z,62.34
2022-12-31T14:15:32.751Z,62.45
2022-12-31T14:19:47.991Z,62.27
2022-12-31T14:24:01.829Z,63.40
2022-12-31T14:28:06.420Z,63.36
2022-12-31T14:32:24.204Z,62.82
2022-12-31T14:36:37.043Z,63.26
2022-12-31T14:40:52.175Z,63.24
2022-12-31T14:45:06.497Z,63.10
2022-12-31T14:49:23.761Z,62.86
2022-12-31T14:53:26.203Z,63.46
2022-12-31T14:57:54.340Z,64.29
2022-12-31T15:01:57.386Z,63.97
2022-12-31T15:06:09.739Z,62.97
2022-12-31T15:10:18.708Z,63.69
2022-12-31T15:15:00.972Z,64.16
2022-12-31T15:19:44.472Z,63.94
2022-12-31T15:23:46.424Z,63.72
2022-12-31T15:27:48.762Z,63.32
2022-12-31T15:31:52.595Z,63.10
2022-12-31T15:35:56.898Z,63.97
2022-12-31T15:40:16.509Z,64.64
2022-12-31T15:44:24.448Z,64.46
2022-12-31T15:48:36.137Z,65.05
2022-12-31T15:52:43.368Z,64.83
2022-12-31T15:56:45.751Z,65.13
2022-12-31T16:01:00.446Z,65.13
2022-12-31T16:05:03.451Z,64.88
2022-12-31T16:09:08.461Z,65.23
2022-12-31T16:13:20.040Z,65.38
2022-12-31T16:17:27.026Z,64.70
2022-12-31T16:21:32.822Z,64.68
2022-12-31T16:25:35.622Z,65.02
2022-12-31T16:29:41.575Z,64.16
2022-12-31T16:33:44.040Z,64.67
2022-12-31T16:37:46.948Z,64.05
2022-12-31T16:41:48.354Z,64.54
2022-12-31T16:45:49.933Z,64.06
2022-12-31T16:49:59.333Z,65.31
2022-12-31T16:54:03.140Z,65.06
2022-12-31T16:58:15.087Z,64.29
2022-12-31T17:02:21.908Z,64.86
2022-12-31T17:06:23.595Z,65.23
2022-12-31T17:10:32.933Z,65.49
2022-12-31T17:14:48.011Z,65.32
2022-12-31T17:18:49.667Z,65.82
2022-12-31T17:22:54.424Z,65.51
2022-12-31T17:27:03.555Z,64.58
2022-12-31T17:31:27.695Z,64.27
2022-12-31T17:35:31.510Z,65.00
2022-12-31T17:39:43.183Z,63.96
2022-12-31T17:43:50.461Z,64.27
2022-12-31T17:47:52.221Z,63.25
2022-12-31T17:51:53.633Z,64.47
2022-12-31T17:56:00.107Z,64.32
2022-12-31T18:00:05.480Z,64.20
2022-12-31T18:04:10.859Z,64.22
2022-12-31T18:08:12.394Z,63.84
2022-12-31T18:12:14.799Z,64.22
2022-12-31T18:16:17.668Z,64.07
2022-12-31T18:20:19.277Z,65.42
2022-12-31T18:24:25.901Z,65.25
2022-12-31T18:28:27.659Z,65.69
2022-12-31T18:32:31.255Z,66.63
2022-12-31T18:36:32.734Z,66.70
2022-12-31T18:40:34.179Z,67.39
2022-12-31T18:44:35.607Z,66.57
2022-12-31T18:48:38.372Z,67.49
2022-12-31T18:52:39.862Z,66.59
2022-12-31T18:56:47.045Z,66.79
2022-12-31T19:00:50.757Z,66.32
2022-12-31T19:04:53.530Z,65.68
2022-12-31T19:08:55.444Z,64.70
2022-12-31T19:12:56.883Z,64.82
2022-12-31T19:16:58.293Z,64.48
2022-12-31T19:21:01.446Z,63.77
2022-12-31T19:25:03.197Z,64.40
2022-12-31T19:29:04.613Z,63.71
2022-12-31T19:33:06.037Z,64.33
2022-12-31T19:37:11.864Z,65.03
2022-12-31T19:41:15.415Z,64.56
2022-12-31T19:45:19.537Z,64.43
2022-12-31T19:49:21.082Z,63.18
2022-12-31T19:53:26.683Z,63.18
2022-12-31T19:57:28.149Z,63.72
2022-12-31T20:01:29.722Z,62.77
2022-12-31T20:05:31.441Z,62.83
2022-12-31T20:09:34.227Z,62.65
2022-12-31T20:13:36.089Z,62.01
2022-12-31T20:17:37.608Z,60.71
2022-12-31T20:21:39.032Z,60.11
2022-12-31T20:25:41.827Z,59.60
2022-12-31T20:29:43.246Z,58.90
2022-12-31T20:33:44.820Z,58.89
2022-12-31T20:37:46.384Z,57.91
2022-12-31T20:41:49.216Z,58.03
2022-12-31T20:45:50.638Z,58.09
2022-12-31T20:50:10.897Z,57.20
2022-12-31T20:54:12.883Z,58.51
2022-12-31T20:58:15.668Z,57.93
2022-12-31T21:02:21.638Z,57.57
2022-12-31T21:06:23.436Z,57.67
2022-12-31T21:10:24.841Z,57.23
2022-12-31T21:14:27.581Z,57.20
2022-12-31T21:18:29.073Z,56.45
2022-12-31T21:22:30.597Z,56.40
2022-12-31T21:26:32.180Z,55.80
2022-12-31T21:30:34.973Z,55.19
2022-12-31T21:34:36.389Z,55.56
2022-12-31T21:38:38.087Z,54.65
2022-12-31T21:42:39.535Z,53.73
2022-12-31T21:47:00.894Z,53.80
2022-12-31T21:51:09.193Z,53.62
2022-12-31T21:55:11.444Z,53.03
2022-12-31T21:59:12.854Z,51.97
2022-12-31T22:03:15.752Z,50.61
2022-12-31T22:07:17.330Z,49.75
2022-12-31T22:11:21.032Z,49.71
2022-12-31T22:15:22.433Z,49.92
2022-12-31T22:19:25.160Z,49.29
2022-12-31T22:23:26.679Z,49.38
2022-12-31T22:27:29.915Z,48.98
2022-12-31T22:31:31.629Z,49.13
2022-12-31T22:35:34.427Z,49.21
2022-12-31T22:39:43.968Z,49.60
2022-12-31T22:43:47.728Z,49.77
2022-12-31T22:47:49.162Z,49.76
2022-12-31T22:51:56.255Z,50.23
2022-12-31T22:56:00.423Z,50.39
2022-12-31T23:00:01.886Z,51.48
2022-12-31T23:04:03.977Z,51.49
2022-12-31T23:08:17.012Z,51.74
2022-12-31T23:12:23.627Z,51.90
2022-12-31T23:16:26.972Z,52.67
2022-12-31T23:20:28.400Z,52.20
2022-12-31T23:24:31.153Z,51.95
2022-12-31T23:28:32.588Z,52.76
2022-12-31T23:32:33.990Z,53.25
2022-12-31T23:36:35.418Z,53.30
2022-12-31T23:40:38.503Z,53.46
2022-12-31T23:44:39.901Z,54.10
2022-12-31T23:48:41.325Z,54.17
2022-12-31T23:52:42.723Z,54.95
2022-12-31T23:56:45.503Z,54.89
